Washington — WDG6858 — position and weather

sailwx.info

Track history (hours):
 
Tides and Currents Weather Stations Pressure Air Temp Water Temp Dewpoint Dewpoint Depression Visibility Wind Speed Wind Dir Waves Ship Positions

Washington

Owner: Whitetail Vessel Company LLC, Paducah, KY. More information available from US FCC via Universal Licensing System and Coast Guard Vessel Documentation Center.

Last reported at 2017-Sep-25 09:17 UTC. Time now 2017-Nov-21 00:54 UTC.
Position N 38°53' W 090°32'.
Warning: this ship's position is 56 days out of date.

Type: Towing. MMSI: 367561430.

Date/timePositionNaut miles runAvg speedWind from/ knotsBaromVisibWave heightAir tempDewpointWater temp
2017-Sep-25 09:17N 38°53' W 090°32'1 1.5
2017-Sep-25 08:53N 38°54' W 090°31'2 5.0
2017-Sep-25 08:30N 38°55' W 090°30'2 3.9
2017-Sep-25 08:00N 38°57' W 090°29'1 1.7
2017-Sep-25 07:30N 38°57' W 090°28'0 0.0
2017-Sep-25 07:00N 38°57' W 090°28'0 0.2
2017-Sep-25 06:30N 38°57' W 090°28'1 2.9
2017-Sep-25 06:00N 38°58' W 090°26'1 2.9
2017-Sep-25 05:30N 38°58' W 090°24'0 0.0
2017-Sep-25 05:00N 38°58' W 090°24'0 0.1
2017-Sep-25 04:30N 38°58' W 090°24'1 1.1
2017-Sep-25 04:00N 38°58' W 090°23'2 4.3
2017-Sep-25 03:30N 38°57' W 090°21'2 4.4
2017-Sep-25 03:00N 38°55' W 090°19'  
2017-Sep-18 15:05N 38°52' W 090°09'1 2.8
2017-Sep-18 14:48N 38°53' W 090°10'1 3.6
2017-Sep-18 14:25N 38°53' W 090°12'2 3.8
2017-Sep-18 13:49N 38°55' W 090°14'1 3.5
2017-Sep-18 13:29N 38°55' W 090°15'2 3.7
2017-Sep-18 13:00N 38°55' W 090°18'2 3.5
2017-Sep-18 12:30N 38°56' W 090°20'2 3.7
2017-Sep-18 12:00N 38°57' W 090°22'2 3.7
2017-Sep-18 11:30N 38°58' W 090°24'2 3.6
2017-Sep-18 11:00N 38°58' W 090°26'2 3.6
2017-Sep-18 10:30N 38°57' W 090°28'2 3.8
2017-Sep-18 10:00N 38°56' W 090°30'3 3.9
2017-Sep-18 09:18N 38°53' W 090°32'1 3.7
2017-Sep-18 08:56N 38°52' W 090°33'  
Track history (hours):
 
Tides and Currents Weather Stations Pressure Air Temp Water Temp Dewpoint Dewpoint Depression Visibility Wind Speed Wind Dir Waves Ship Positions

Washington

Owner: Whitetail Vessel Company LLC, Paducah, KY. More information available from US FCC via Universal Licensing System and Coast Guard Vessel Documentation Center.

Last reported at 2017-Sep-25 09:17 UTC. Time now 2017-Nov-21 00:54 UTC.
Position N 38°53' W 090°32'.
Warning: this ship's position is 56 days out of date.

Type: Towing. MMSI: 367561430.

Date/timePositionNaut miles runAvg speedWind from/ knotsBaromVisibWave heightAir tempDewpointWater temp
2017-Sep-25 09:17N 38°53' W 090°32'1 1.5
2017-Sep-25 08:53N 38°54' W 090°31'2 5.0
2017-Sep-25 08:30N 38°55' W 090°30'2 3.9
2017-Sep-25 08:00N 38°57' W 090°29'1 1.7
2017-Sep-25 07:30N 38°57' W 090°28'0 0.0
2017-Sep-25 07:00N 38°57' W 090°28'0 0.2
2017-Sep-25 06:30N 38°57' W 090°28'1 2.9
2017-Sep-25 06:00N 38°58' W 090°26'1 2.9
2017-Sep-25 05:30N 38°58' W 090°24'0 0.0
2017-Sep-25 05:00N 38°58' W 090°24'0 0.1
2017-Sep-25 04:30N 38°58' W 090°24'1 1.1
2017-Sep-25 04:00N 38°58' W 090°23'2 4.3
2017-Sep-25 03:30N 38°57' W 090°21'2 4.4
2017-Sep-25 03:00N 38°55' W 090°19'  
2017-Sep-18 15:05N 38°52' W 090°09'1 2.8
2017-Sep-18 14:48N 38°53' W 090°10'1 3.6
2017-Sep-18 14:25N 38°53' W 090°12'2 3.8
2017-Sep-18 13:49N 38°55' W 090°14'1 3.5
2017-Sep-18 13:29N 38°55' W 090°15'2 3.7
2017-Sep-18 13:00N 38°55' W 090°18'2 3.5
2017-Sep-18 12:30N 38°56' W 090°20'2 3.7
2017-Sep-18 12:00N 38°57' W 090°22'2 3.7
2017-Sep-18 11:30N 38°58' W 090°24'2 3.6
2017-Sep-18 11:00N 38°58' W 090°26'2 3.6
2017-Sep-18 10:30N 38°57' W 090°28'2 3.8
2017-Sep-18 10:00N 38°56' W 090°30'3 3.9
2017-Sep-18 09:18N 38°53' W 090°32'1 3.7
2017-Sep-18 08:56N 38°52' W 090°33'  

Dump ship's entire track history